createdAt,value
2022-08-09T00:01:43.163Z,78.90
2022-08-09T00:05:00.805Z,78.20
2022-08-09T00:08:32.609Z,78.30
2022-08-09T00:11:58.441Z,78.70
2022-08-09T00:15:06.290Z,78.90
2022-08-09T00:18:11.916Z,78.90
2022-08-09T00:21:14.143Z,78.80
2022-08-09T00:24:15.799Z,78.70
2022-08-09T00:27:21.679Z,80.10
2022-08-09T00:30:25.973Z,79.10
2022-08-09T00:33:48.831Z,79.20
2022-08-09T00:36:50.759Z,79.70
2022-08-09T00:40:14.129Z,79.60
2022-08-09T00:44:10.204Z,79.60
2022-08-09T00:46:56.357Z,79.60
2022-08-09T00:49:58.927Z,79.80
2022-08-09T00:53:00.610Z,80.40
2022-08-09T00:56:13.596Z,80.20
2022-08-09T00:59:15.569Z,80.40
2022-08-09T01:02:34.540Z,80.40
2022-08-09T01:06:17.479Z,81.40
2022-08-09T01:09:35.798Z,79.00
2022-08-09T01:12:59.506Z,81.40
2022-08-09T01:16:04.769Z,81.40
2022-08-09T01:19:39.961Z,81.10
2022-08-09T01:24:01.078Z,79.80
2022-08-09T01:27:08.534Z,81.40
2022-08-09T01:30:33.683Z,79.30
2022-08-09T01:33:38.392Z,82.70
2022-08-09T01:36:41.875Z,82.10
2022-08-09T01:39:46.072Z,82.00
2022-08-09T01:42:50.213Z,82.60
2022-08-09T01:45:54.371Z,82.00
2022-08-09T01:49:09.453Z,82.40
2022-08-09T01:52:15.755Z,83.00
2022-08-09T01:55:18.461Z,82.30
2022-08-09T01:58:24.210Z,82.90
2022-08-09T02:01:30.579Z,83.40
2022-08-09T02:04:52.002Z,83.30
2022-08-09T02:08:35.853Z,83.40
2022-08-09T02:11:21.410Z,83.70
2022-08-09T02:14:26.451Z,83.00
2022-08-09T02:18:01.734Z,83.70
2022-08-09T02:20:58.814Z,84.00
2022-08-09T02:24:05.865Z,84.40
2022-08-09T02:27:14.500Z,83.90
2022-08-09T02:30:21.075Z,84.90
2022-08-09T02:33:38.142Z,84.00
2022-08-09T02:36:54.691Z,83.90
2022-08-09T02:40:01.407Z,84.20
2022-08-09T02:43:08.144Z,85.20
2022-08-09T02:46:16.518Z,84.90
2022-08-09T02:49:19.311Z,85.30
2022-08-09T02:52:40.506Z,85.00
2022-08-09T02:55:53.729Z,83.90
2022-08-09T02:59:03.460Z,85.60
2022-08-09T03:02:09.763Z,85.70
2022-08-09T03:05:17.336Z,85.70
2022-08-09T03:08:21.043Z,85.30
2022-08-09T03:12:04.231Z,85.80
2022-08-09T03:14:50.518Z,86.00
2022-08-09T03:17:58.030Z,86.50
2022-08-09T03:21:03.547Z,86.50
2022-08-09T03:24:05.562Z,86.80
2022-08-09T03:27:09.596Z,86.30
2022-08-09T03:30:14.163Z,87.00
2022-08-09T03:33:54.383Z,87.30
2022-08-09T03:36:59.452Z,86.50
2022-08-09T03:40:01.740Z,86.40
2022-08-09T03:43:06.592Z,87.10
2022-08-09T03:46:20.530Z,87.10
2022-08-09T03:49:32.898Z,87.40
2022-08-09T03:52:40.337Z,87.60
2022-08-09T03:55:43.635Z,87.80
2022-08-09T03:58:46.696Z,87.80
2022-08-09T04:01:54.001Z,87.70
2022-08-09T04:05:06.371Z,88.10
2022-08-09T04:08:08.848Z,88.80
2022-08-09T04:11:11.309Z,88.30
2022-08-09T04:14:52.862Z,88.40
2022-08-09T04:17:34.535Z,88.60
2022-08-09T04:20:36.182Z,88.30
2022-08-09T04:23:38.055Z,88.60
2022-08-09T04:26:41.381Z,88.70
2022-08-09T04:29:50.143Z,88.60
2022-08-09T04:32:52.959Z,88.90
2022-08-09T04:35:55.830Z,88.90
2022-08-09T04:39:00.018Z,89.10
2022-08-09T04:42:02.819Z,89.60
2022-08-09T04:45:05.292Z,89.50
2022-08-09T04:48:10.498Z,89.30
2022-08-09T04:51:12.722Z,90.20
2022-08-09T04:54:18.644Z,89.60
2022-08-09T04:57:24.359Z,89.80
2022-08-09T05:00:27.767Z,90.10
2022-08-09T05:03:42.606Z,90.00
2022-08-09T05:06:45.357Z,90.10
2022-08-09T05:09:52.307Z,90.20
2022-08-09T05:12:53.958Z,90.10
2022-08-09T05:15:56.695Z,90.40
2022-08-09T05:19:00.302Z,90.20
2022-08-09T05:22:02.376Z,90.30
2022-08-09T05:25:05.230Z,90.40
2022-08-09T05:28:06.838Z,90.20
2022-08-09T05:31:09.659Z,90.30
2022-08-09T05:34:16.564Z,90.40
2022-08-09T05:37:18.858Z,90.40
2022-08-09T05:40:20.573Z,90.50
2022-08-09T05:43:23.636Z,90.40
2022-08-09T05:46:25.322Z,90.40
2022-08-09T05:50:26.002Z,90.40
2022-08-09T05:52:53.352Z,90.50
2022-08-09T05:55:55.605Z,90.30
2022-08-09T05:58:58.599Z,90.50
2022-08-09T06:02:00.473Z,90.30
2022-08-09T06:05:04.079Z,90.70
2022-08-09T06:08:07.969Z,90.30
2022-08-09T06:11:17.325Z,90.30
2022-08-09T06:14:19.647Z,90.80
2022-08-09T06:17:22.050Z,90.10
2022-08-09T06:20:23.711Z,89.90
2022-08-09T06:23:57.936Z,89.90
2022-08-09T06:26:50.475Z,90.00
2022-08-09T06:30:04.368Z,90.60
2022-08-09T06:33:30.340Z,89.70
2022-08-09T06:36:33.023Z,89.60
2022-08-09T06:39:49.007Z,89.40
2022-08-09T06:42:56.322Z,89.20
2022-08-09T06:46:07.511Z,89.50
2022-08-09T06:49:12.745Z,89.00
2022-08-09T06:52:17.795Z,88.90
2022-08-09T06:55:23.203Z,88.60
2022-08-09T06:58:46.247Z,88.60
2022-08-09T07:01:54.787Z,88.60
2022-08-09T07:05:02.286Z,88.00
2022-08-09T07:08:04.198Z,89.10
2022-08-09T07:11:06.947Z,87.60
2022-08-09T07:14:08.876Z,87.60
2022-08-09T07:17:10.479Z,87.10
2022-08-09T07:20:14.585Z,86.70
2022-08-09T07:23:18.179Z,87.00
2022-08-09T07:26:20.955Z,86.50
2022-08-09T07:29:24.819Z,86.00
2022-08-09T07:32:33.567Z,86.70
2022-08-09T07:35:53.460Z,86.50
2022-08-09T07:39:00.963Z,85.80
2022-08-09T07:42:04.249Z,85.80
2022-08-09T07:45:22.892Z,85.80
2022-08-09T07:48:30.399Z,85.00
2022-08-09T07:52:05.419Z,85.50
2022-08-09T07:54:55.123Z,85.40
2022-08-09T07:57:59.166Z,85.70
2022-08-09T08:01:10.911Z,84.70
2022-08-09T08:04:13.060Z,84.60
2022-08-09T08:08:06.180Z,84.30
2022-08-09T08:10:37.048Z,84.50
2022-08-09T08:13:55.861Z,84.10
2022-08-09T08:17:07.512Z,85.50
2022-08-09T08:20:13.119Z,85.20
2022-08-09T08:23:17.823Z,83.10
2022-08-09T08:26:26.706Z,83.60
2022-08-09T08:29:45.229Z,83.40
2022-08-09T08:32:53.858Z,83.40
2022-08-09T08:36:00.303Z,83.20
2022-08-09T08:39:05.461Z,83.00
2022-08-09T08:42:07.544Z,83.00
2022-08-09T08:45:13.433Z,82.70
2022-08-09T08:48:19.850Z,82.20
2022-08-09T08:51:25.615Z,82.60
2022-08-09T08:54:29.725Z,82.80
2022-08-09T08:57:35.144Z,81.50
2022-08-09T09:00:37.864Z,82.60
2022-08-09T09:03:42.069Z,81.00
2022-08-09T09:06:48.404Z,80.70
2022-08-09T09:10:02.091Z,80.90
2022-08-09T09:13:09.520Z,80.80
2022-08-09T09:16:13.107Z,80.40
2022-08-09T09:19:36.932Z,79.50
2022-08-09T09:23:01.777Z,79.50
2022-08-09T09:26:11.880Z,79.90
2022-08-09T09:29:17.021Z,79.40
2022-08-09T09:32:32.222Z,79.00
2022-08-09T09:36:00.571Z,78.70
2022-08-09T09:39:10.151Z,76.20
2022-08-09T09:42:28.744Z,77.60
2022-08-09T09:45:56.975Z,77.90
2022-08-09T09:49:04.668Z,77.60
2022-08-09T09:52:33.468Z,77.50
2022-08-09T09:55:33.168Z,77.80
2022-08-09T09:58:49.080Z,76.30
2022-08-09T10:02:00.272Z,76.20
2022-08-09T10:05:09.842Z,75.00
2022-08-09T10:08:27.784Z,74.70
2022-08-09T10:12:00.014Z,74.90
2022-08-09T10:15:25.355Z,74.00
2022-08-09T10:18:37.492Z,72.10
2022-08-09T10:21:54.133Z,74.70
2022-08-09T10:24:59.292Z,74.10
2022-08-09T10:28:06.381Z,72.60
2022-08-09T10:34:33.772Z,73.20
2022-08-09T10:37:38.987Z,73.00
2022-08-09T10:40:44.749Z,72.60
2022-08-09T10:44:01.094Z,73.30
2022-08-09T10:48:16.614Z,72.20
2022-08-09T10:51:06.576Z,69.50
2022-08-09T10:54:12.448Z,71.80
2022-08-09T10:57:15.034Z,71.50
2022-08-09T11:00:28.825Z,71.10
2022-08-09T11:03:51.417Z,70.10
2022-08-09T11:07:12.141Z,70.30
2022-08-09T11:10:21.965Z,70.60
2022-08-09T11:13:50.085Z,71.40
2022-08-09T11:16:52.471Z,69.50
2022-08-09T11:20:10.081Z,69.80
2022-08-09T11:23:15.427Z,71.40
2022-08-09T11:26:40.730Z,68.90
2022-08-09T11:30:05.266Z,67.90
2022-08-09T11:33:19.012Z,69.70
2022-08-09T11:36:35.328Z,68.40
2022-08-09T11:40:04.271Z,69.60
2022-08-09T11:43:06.226Z,67.30
2022-08-09T11:46:09.292Z,70.40
2022-08-09T11:49:16.874Z,68.00
2022-08-09T11:53:16.026Z,67.80
2022-08-09T11:55:53.361Z,67.30
2022-08-09T11:59:05.672Z,67.30
2022-08-09T12:02:37.456Z,67.70
2022-08-09T12:05:39.833Z,68.70
2022-08-09T12:08:51.585Z,69.20
2022-08-09T12:12:12.084Z,67.70
2022-08-09T12:15:49.582Z,68.10
2022-08-09T12:18:54.090Z,66.10
2022-08-09T12:22:00.471Z,66.10
2022-08-09T12:25:36.492Z,66.10
2022-08-09T12:29:09.878Z,67.00
2022-08-09T12:32:10.812Z,65.80
2022-08-09T12:35:17.044Z,66.10
2022-08-09T12:38:37.366Z,65.60
2022-08-09T12:41:40.609Z,64.70
2022-08-09T12:44:51.989Z,65.10
2022-08-09T12:47:54.249Z,64.50
2022-08-09T12:50:57.060Z,64.50
2022-08-09T12:54:01.946Z,64.70
2022-08-09T12:57:03.626Z,63.80
2022-08-09T13:00:25.167Z,63.40
2022-08-09T13:03:57.166Z,64.10
2022-08-09T13:06:54.077Z,65.30
2022-08-09T13:10:04.256Z,62.30
2022-08-09T13:13:10.172Z,62.00
2022-08-09T13:16:15.716Z,63.50
2022-08-09T13:20:09.645Z,62.40
2022-08-09T13:23:05.693Z,65.10
2022-08-09T13:26:38.860Z,63.30
2022-08-09T13:30:04.104Z,64.40
2022-08-09T13:33:24.798Z,61.20
2022-08-09T13:36:46.372Z,62.30
2022-08-09T13:41:50.736Z,62.30
2022-08-09T13:43:15.477Z,60.60
2022-08-09T13:47:16.671Z,61.30
2022-08-09T13:49:58.219Z,60.70
2022-08-09T13:53:01.492Z,60.10
2022-08-09T13:56:05.321Z,61.30
2022-08-09T13:59:07.060Z,58.70
2022-08-09T14:02:09.969Z,59.70
2022-08-09T14:05:13.475Z,58.90
2022-08-09T14:08:33.330Z,59.80
2022-08-09T14:11:47.268Z,58.40
2022-08-09T14:14:53.815Z,58.80
2022-08-09T14:18:16.511Z,55.60
2022-08-09T14:21:23.196Z,56.40
2022-08-09T14:24:31.995Z,56.40
2022-08-09T14:27:34.344Z,57.00
2022-08-09T14:30:55.903Z,56.50
2022-08-09T14:33:57.624Z,57.20
2022-08-09T14:37:06.726Z,55.70
2022-08-09T14:40:10.068Z,55.00
2022-08-09T14:43:12.493Z,54.80
2022-08-09T14:46:58.659Z,55.60
2022-08-09T14:50:01.615Z,55.80
2022-08-09T14:53:11.532Z,55.20
2022-08-09T14:56:13.753Z,54.60
2022-08-09T14:59:15.763Z,54.90
2022-08-09T15:02:20.474Z,56.20
2022-08-09T15:05:25.448Z,52.50
2022-08-09T15:08:30.206Z,53.90
2022-08-09T15:11:33.622Z,53.80
2022-08-09T15:14:38.587Z,53.20
2022-08-09T15:17:46.114Z,53.60
2022-08-09T15:21:57.383Z,54.50
2022-08-09T15:24:16.471Z,55.40
2022-08-09T15:27:23.858Z,55.10
2022-08-09T15:30:58.381Z,54.90
2022-08-09T15:34:17.574Z,56.60
2022-08-09T15:37:37.287Z,55.10
2022-08-09T15:41:02.114Z,56.50
2022-08-09T15:44:13.533Z,56.40
2022-08-09T15:47:22.639Z,57.30
2022-08-09T15:50:33.631Z,59.40
2022-08-09T15:54:06.871Z,58.10
2022-08-09T15:56:56.800Z,59.30
2022-08-09T15:59:58.645Z,58.40
2022-08-09T16:03:00.248Z,58.50
2022-08-09T16:06:04.275Z,58.20
2022-08-09T16:09:06.175Z,58.00
2022-08-09T16:12:11.547Z,58.30
2022-08-09T16:16:09.803Z,58.50
2022-08-09T16:18:35.807Z,59.80
2022-08-09T16:21:38.815Z,59.10
2022-08-09T16:24:40.477Z,58.80
2022-08-09T16:27:43.922Z,58.50
2022-08-09T16:30:58.432Z,58.80
2022-08-09T16:34:02.575Z,58.20
2022-08-09T16:37:10.378Z,58.00
2022-08-09T16:40:29.398Z,58.80
2022-08-09T16:43:40.447Z,58.70
2022-08-09T16:46:55.315Z,58.10
2022-08-09T16:50:33.099Z,58.30
2022-08-09T16:53:33.997Z,57.90
2022-08-09T16:56:37.061Z,58.20
2022-08-09T16:59:57.929Z,58.90
2022-08-09T17:03:00.477Z,58.40
2022-08-09T17:06:28.168Z,58.00
2022-08-09T17:09:45.763Z,58.70
2022-08-09T17:12:49.299Z,58.90
2022-08-09T17:16:00.257Z,58.60
2022-08-09T17:19:05.305Z,58.60
2022-08-09T17:22:10.838Z,58.40
2022-08-09T17:25:14.186Z,58.40
2022-08-09T17:28:18.096Z,58.40
2022-08-09T17:31:22.281Z,58.00
2022-08-09T17:35:04.142Z,55.20
2022-08-09T17:38:02.609Z,56.50
2022-08-09T17:41:09.491Z,57.00
2022-08-09T17:44:47.227Z,57.20
2022-08-09T17:47:48.378Z,57.80
2022-08-09T17:50:55.993Z,57.60
2022-08-09T17:54:01.850Z,57.30
2022-08-09T17:57:04.283Z,57.10
2022-08-09T18:00:09.875Z,56.80
2022-08-09T18:03:13.093Z,56.60
2022-08-09T18:06:28.918Z,58.00
2022-08-09T18:09:41.637Z,55.70
2022-08-09T18:13:54.615Z,56.70
2022-08-09T18:16:08.771Z,57.70
2022-08-09T18:20:55.624Z,58.50
2022-08-09T18:22:37.888Z,58.70
2022-08-09T18:25:53.256Z,59.40
2022-08-09T18:30:37.884Z,59.60
2022-08-09T18:32:22.235Z,59.60
2022-08-09T18:35:58.452Z,59.30
2022-08-09T18:38:48.503Z,59.60
2022-08-09T18:41:53.922Z,58.60
2022-08-09T18:44:56.976Z,60.00
2022-08-09T18:47:59.705Z,59.90
2022-08-09T18:51:02.409Z,59.90
2022-08-09T18:54:08.580Z,59.80
2022-08-09T18:57:22.445Z,59.70
2022-08-09T19:00:26.054Z,61.00
2022-08-09T19:03:29.446Z,61.20
2022-08-09T19:06:51.609Z,60.30
2022-08-09T19:10:13.966Z,61.00
2022-08-09T19:13:22.293Z,61.70
2022-08-09T19:16:27.472Z,61.00
2022-08-09T19:19:41.509Z,61.70
2022-08-09T19:22:53.182Z,61.30
2022-08-09T19:26:01.916Z,62.20
2022-08-09T19:29:18.211Z,61.70
2022-08-09T19:32:26.678Z,61.70
2022-08-09T19:35:57.216Z,62.30
2022-08-09T19:38:59.129Z,62.30
2022-08-09T19:42:06.505Z,62.40
2022-08-09T19:45:10.102Z,62.40
2022-08-09T19:48:12.382Z,62.90
2022-08-09T19:51:14.028Z,62.40
2022-08-09T19:54:20.058Z,64.20
2022-08-09T19:57:25.554Z,63.00
2022-08-09T20:00:31.312Z,63.80
2022-08-09T20:04:16.789Z,63.40
2022-08-09T20:07:00.587Z,64.00
2022-08-09T20:10:17.631Z,64.70
2022-08-09T20:13:28.769Z,63.90
2022-08-09T20:16:53.528Z,64.00
2022-08-09T20:19:57.087Z,64.30
2022-08-09T20:22:58.774Z,65.40
2022-08-09T20:26:01.333Z,64.70
2022-08-09T20:29:18.704Z,64.50
2022-08-09T20:32:29.689Z,64.90
2022-08-09T20:35:33.414Z,65.00
2022-08-09T20:39:01.163Z,65.30
2022-08-09T20:41:59.242Z,66.40
2022-08-09T20:45:56.515Z,65.50
2022-08-09T20:48:22.742Z,66.00
2022-08-09T20:51:25.831Z,65.80
2022-08-09T20:54:27.769Z,66.10
2022-08-09T20:57:32.145Z,66.70
2022-08-09T21:00:35.063Z,66.30
2022-08-09T21:03:39.395Z,66.60
2022-08-09T21:06:58.185Z,66.70
2022-08-09T21:10:00.085Z,67.10
2022-08-09T21:13:01.709Z,66.70
2022-08-09T21:16:04.186Z,66.70
2022-08-09T21:20:19.009Z,67.00
2022-08-09T21:22:47.073Z,67.50
2022-08-09T21:25:59.860Z,67.10
2022-08-09T21:29:01.758Z,65.50
2022-08-09T21:32:18.542Z,67.50
2022-08-09T21:35:21.704Z,67.70
2022-08-09T21:38:31.266Z,67.60
2022-08-09T21:42:06.058Z,67.70
2022-08-09T21:44:56.733Z,68.00
2022-08-09T21:47:59.512Z,67.40
2022-08-09T21:51:01.111Z,68.20
2022-08-09T21:54:04.333Z,68.00
2022-08-09T21:57:05.999Z,69.10
2022-08-09T22:00:32.297Z,68.40
2022-08-09T22:03:36.706Z,68.80
2022-08-09T22:06:58.995Z,68.40
2022-08-09T22:10:06.379Z,68.20
2022-08-09T22:13:11.393Z,68.30
2022-08-09T22:16:13.274Z,68.50
2022-08-09T22:19:53.411Z,68.60
2022-08-09T22:22:38.985Z,68.60
2022-08-09T22:26:07.938Z,68.90
2022-08-09T22:29:07.194Z,69.10
2022-08-09T22:32:29.380Z,69.10
2022-08-09T22:35:59.902Z,69.70
2022-08-09T22:38:53.547Z,69.80
2022-08-09T22:41:55.186Z,69.20
2022-08-09T22:45:00.359Z,70.20
2022-08-09T22:48:34.617Z,69.90
2022-08-09T22:51:39.415Z,70.00
2022-08-09T22:54:41.268Z,70.40
2022-08-09T22:57:44.449Z,71.50
2022-08-09T23:01:04.058Z,71.30
2022-08-09T23:04:07.486Z,71.90
2022-08-09T23:08:21.335Z,71.10
2022-08-09T23:10:49.590Z,69.70
2022-08-09T23:13:53.428Z,69.40
2022-08-09T23:16:55.017Z,71.10
2022-08-09T23:20:07.460Z,71.10
2022-08-09T23:23:09.872Z,71.50
2022-08-09T23:26:11.495Z,72.60
2022-08-09T23:29:13.733Z,72.20
2022-08-09T23:32:15.657Z,72.20
2022-08-09T23:35:17.284Z,71.90
2022-08-09T23:38:22.409Z,72.20
2022-08-09T23:41:27.613Z,72.50
2022-08-09T23:44:31.077Z,72.70
2022-08-09T23:47:32.655Z,73.70
2022-08-09T23:50:34.318Z,73.70
2022-08-09T23:53:37.629Z,73.00
2022-08-09T23:56:54.269Z,73.40
